Time;durP1;ratioP1;P1;durP2;ratioP2;P2;SDS_P1;SDS_P2;PMS_P1;PMS_P2;Temp;Humidity;BMP_temperature;BMP_pressure;BME280_temperature;BME280_humidity;BME280_pressure;Samples;Min_cycle;Max_cycle;Signal;HPM_P1;HPM_P2
2023/04/18 00:02:17;;;;;;;2.33;1.73;;;13.60;94.30;;;;;;5007824;28;20581;-74
2023/04/18 00:04:47;;;;;;;4.20;1.63;;;13.50;94.30;;;;;;5010692;28;20258;-73
2023/04/18 00:07:16;;;;;;;3.23;1.63;;;13.50;94.30;;;;;;5010213;28;20602;-75
2023/04/18 00:09:44;;;;;;;2.63;1.57;;;13.50;94.30;;;;;;5006981;28;20197;-74
2023/04/18 00:12:14;;;;;;;8.43;2.87;;;13.60;94.30;;;;;;5011444;28;20670;-73
2023/04/18 00:14:42;;;;;;;2.73;1.67;;;13.60;94.30;;;;;;5005733;28;20224;-73
2023/04/18 00:17:12;;;;;;;7.40;1.33;;;13.60;94.20;;;;;;5014094;28;20224;-74
2023/04/18 00:19:42;;;;;;;2.67;1.70;;;13.60;94.30;;;;;;5006561;28;20201;-75
2023/04/18 00:22:11;;;;;;;4.47;1.83;;;13.60;94.20;;;;;;5006182;28;20425;-73
2023/04/18 00:24:40;;;;;;;5.73;2.70;;;13.60;94.10;;;;;;5011760;28;20223;-72
2023/04/18 00:27:08;;;;;;;3.13;2.17;;;13.60;94.10;;;;;;5012371;28;20246;-73
2023/04/18 00:29:37;;;;;;;2.20;1.83;;;13.60;94.10;;;;;;5013449;28;20200;-76
2023/04/18 00:32:05;;;;;;;2.60;1.90;;;13.60;94.00;;;;;;5008861;28;20653;-76
2023/04/18 00:34:34;;;;;;;2.27;1.47;;;13.50;93.80;;;;;;5006420;28;20208;-73
2023/04/18 00:37:02;;;;;;;2.77;1.70;;;13.50;93.90;;;;;;5009166;28;20579;-73
2023/04/18 00:39:32;;;;;;;2.40;1.57;;;13.50;93.90;;;;;;5015019;28;20659;-74
2023/04/18 00:42:01;;;;;;;3.73;1.97;;;13.50;93.90;;;;;;5011264;28;20254;-72
2023/04/18 00:44:30;;;;;;;5.03;2.50;;;13.50;93.90;;;;;;5010902;28;20196;-74
2023/04/18 00:46:58;;;;;;;2.23;1.43;;;13.40;93.80;;;;;;5007619;28;20633;-74
2023/04/18 00:49:27;;;;;;;2.60;1.63;;;13.40;93.90;;;;;;5013299;28;20715;-73
2023/04/18 00:51:56;;;;;;;2.53;1.43;;;13.40;93.80;;;;;;5012043;28;20200;-74
2023/04/18 00:54:26;;;;;;;5.20;2.10;;;13.40;93.80;;;;;;5012830;28;20195;-73
2023/04/18 00:56:56;;;;;;;2.27;1.67;;;13.40;93.60;;;;;;5007812;28;20680;-74
2023/04/18 00:59:24;;;;;;;2.97;1.70;;;13.40;93.70;;;;;;5012802;28;20250;-73
2023/04/18 01:01:52;;;;;;;3.67;1.77;;;13.40;93.70;;;;;;5009382;28;20658;-74
2023/04/18 01:04:21;;;;;;;2.73;1.87;;;13.40;93.70;;;;;;5010827;28;20196;-73
2023/04/18 01:06:50;;;;;;;6.40;2.07;;;13.40;93.60;;;;;;5011708;28;20200;-74
2023/04/18 01:09:20;;;;;;;3.27;1.67;;;13.40;93.60;;;;;;5014060;28;20649;-73
2023/04/18 01:11:48;;;;;;;2.00;1.23;;;13.40;93.60;;;;;;5003693;28;20653;-72
2023/04/18 01:14:19;;;;;;;3.27;2.13;;;13.40;93.50;;;;;;5007365;28;20251;-76
2023/04/18 01:16:48;;;;;;;3.03;1.87;;;13.40;93.50;;;;;;5009396;28;20267;-74
2023/04/18 01:19:17;;;;;;;3.77;1.77;;;13.30;93.50;;;;;;5010372;28;20605;-74
2023/04/18 01:21:46;;;;;;;1.63;1.13;;;13.30;93.40;;;;;;5009988;28;20200;-76
2023/04/18 01:24:17;;;;;;;2.33;1.50;;;13.30;93.50;;;;;;5007015;28;20204;-74
2023/04/18 01:26:47;;;;;;;4.03;2.00;;;13.30;93.50;;;;;;5012619;28;20200;-74
2023/04/18 01:29:16;;;;;;;3.83;2.30;;;13.30;93.30;;;;;;5006222;28;20201;-74
2023/04/18 01:31:44;;;;;;;2.00;1.53;;;13.20;93.30;;;;;;5006891;28;20195;-74
2023/04/18 01:34:13;;;;;;;3.13;1.63;;;13.20;93.30;;;;;;5004176;28;20569;-75
2023/04/18 01:36:42;;;;;;;3.23;2.00;;;13.20;93.40;;;;;;5010306;28;20230;-75
2023/04/18 01:39:11;;;;;;;3.83;2.30;;;13.20;93.40;;;;;;5018748;28;20223;-76
2023/04/18 01:41:42;;;;;;;1.73;1.27;;;13.20;93.30;;;;;;5014970;28;20712;-76
2023/04/18 01:44:10;;;;;;;4.57;2.33;;;13.10;93.40;;;;;;5015253;28;20201;-77
2023/04/18 01:46:39;;;;;;;3.57;2.00;;;13.10;93.50;;;;;;5014692;28;20196;-76
2023/04/18 01:49:08;;;;;;;2.90;1.97;;;13.10;93.50;;;;;;5014477;28;20226;-77
2023/04/18 01:51:38;;;;;;;1.90;1.40;;;13.10;93.50;;;;;;5012574;28;20201;-77
2023/04/18 01:54:06;;;;;;;1.87;1.57;;;13.10;93.50;;;;;;5017865;28;20196;-77
2023/04/18 01:56:34;;;;;;;5.03;1.67;;;13.10;93.50;;;;;;5018703;28;20224;-76
2023/04/18 01:59:04;;;;;;;1.50;1.20;;;13.10;93.40;;;;;;5011573;28;20258;-77
2023/04/18 02:01:32;;;;;;;3.40;1.80;;;13.20;93.50;;;;;;5014410;28;20201;-77
2023/04/18 02:04:01;;;;;;;1.80;1.10;;;13.10;93.50;;;;;;5013671;28;20200;-77
2023/04/18 02:06:30;;;;;;;1.93;1.23;;;13.10;93.50;;;;;;5017840;28;20192;-76
2023/04/18 02:08:59;;;;;;;1.70;1.03;;;13.10;93.40;;;;;;5015200;28;20231;-77
2023/04/18 02:11:27;;;;;;;2.40;1.23;;;13.20;93.40;;;;;;5013250;28;20708;-76
2023/04/18 02:13:56;;;;;;;4.07;1.87;;;13.10;93.40;;;;;;5012711;28;20208;-77
2023/04/18 02:16:26;;;;;;;2.67;1.33;;;13.20;93.30;;;;;;5013826;28;20196;-77
2023/04/18 02:18:54;;;;;;;2.30;1.73;;;13.20;93.20;;;;;;5014203;28;20199;-77
2023/04/18 02:21:23;;;;;;;2.50;1.37;;;13.30;93.20;;;;;;5013531;28;20209;-75
2023/04/18 02:23:51;;;;;;;2.33;1.60;;;13.30;93.20;;;;;;5010830;28;20197;-73
2023/04/18 02:26:19;;;;;;;1.73;1.30;;;13.30;93.20;;;;;;5015061;28;20205;-74
2023/04/18 02:28:48;;;;;;;1.60;0.97;;;13.30;93.00;;;;;;5016233;28;20228;-74
2023/04/18 02:31:17;;;;;;;5.77;1.73;;;13.40;93.00;;;;;;5013184;28;20204;-75
2023/04/18 02:33:47;;;;;;;3.13;1.70;;;13.30;92.80;;;;;;5011239;28;20193;-74
2023/04/18 02:36:16;;;;;;;3.63;1.73;;;13.30;92.80;;;;;;5010241;28;20520;-75
2023/04/18 02:38:44;;;;;;;1.87;1.43;;;13.40;92.90;;;;;;5010364;28;20656;-74
2023/04/18 02:41:13;;;;;;;1.53;1.40;;;13.40;92.80;;;;;;5009339;28;20266;-76
2023/04/18 02:43:42;;;;;;;1.17;1.00;;;13.40;92.70;;;;;;5017368;28;20204;-76
2023/04/18 02:46:10;;;;;;;2.77;1.70;;;13.40;92.70;;;;;;5015079;28;20270;-75
2023/04/18 02:48:39;;;;;;;2.90;1.57;;;13.50;92.80;;;;;;5009584;28;20203;-75
2023/04/18 02:51:09;;;;;;;2.20;1.23;;;13.40;92.70;;;;;;5014749;28;20192;-76
2023/04/18 02:53:37;;;;;;;2.67;1.60;;;13.50;92.70;;;;;;5010417;28;20247;-75
2023/04/18 02:56:07;;;;;;;1.93;1.77;;;13.50;92.70;;;;;;5017633;28;20255;-75
2023/04/18 02:58:35;;;;;;;2.53;1.60;;;13.50;92.50;;;;;;5010889;28;20220;-74
2023/04/18 03:01:04;;;;;;;3.67;1.60;;;13.50;92.90;;;;;;5010490;28;20204;-76
2023/04/18 03:03:32;;;;;;;1.93;1.23;;;13.50;92.90;;;;;;5023242;28;20293;-75
2023/04/18 03:06:00;;;;;;;5.37;1.73;;;13.50;92.60;;;;;;5025813;28;20286;-76
2023/04/18 03:08:30;;;;;;;2.13;1.47;;;13.50;92.60;;;;;;5031123;28;20204;-75
2023/04/18 03:10:59;;;;;;;3.03;1.50;;;13.60;92.60;;;;;;5026334;28;20200;-75
2023/04/18 03:13:27;;;;;;;2.60;1.57;;;13.60;92.50;;;;;;5033523;28;20199;-76
2023/04/18 03:15:55;;;;;;;3.90;1.67;;;13.60;92.50;;;;;;5029291;28;20269;-75
2023/04/18 03:18:24;;;;;;;2.27;1.20;;;13.70;92.50;;;;;;5029500;28;20798;-76
2023/04/18 03:20:53;;;;;;;5.77;2.40;;;13.70;92.40;;;;;;5025256;28;20211;-76
2023/04/18 03:23:21;;;;;;;4.23;1.80;;;13.60;92.30;;;;;;5029693;28;20322;-76
2023/04/18 03:25:51;;;;;;;2.73;1.63;;;13.60;92.40;;;;;;5026514;28;20191;-76
2023/04/18 03:28:19;;;;;;;2.00;1.50;;;13.70;92.40;;;;;;5026488;28;20199;-75
2023/04/18 03:30:47;;;;;;;2.30;1.47;;;13.70;92.30;;;;;;5024388;28;20222;-75
2023/04/18 03:33:16;;;;;;;1.97;1.53;;;13.60;92.20;;;;;;5026413;28;20609;-76
2023/04/18 03:35:44;;;;;;;3.50;1.87;;;13.70;92.20;;;;;;5037098;28;20295;-75
2023/04/18 03:38:13;;;;;;;3.93;1.93;;;13.70;92.20;;;;;;5037928;28;20219;-76
2023/04/18 03:40:43;;;;;;;2.07;1.50;;;13.70;92.20;;;;;;5034857;28;20322;-75
2023/04/18 03:43:13;;;;;;;3.60;1.80;;;13.60;92.10;;;;;;5032558;28;20204;-75
2023/04/18 03:45:42;;;;;;;5.73;1.40;;;13.70;92.10;;;;;;5030632;28;20341;-75
2023/04/18 03:48:11;;;;;;;2.17;1.50;;;13.70;92.10;;;;;;5037174;28;20261;-75
2023/04/18 03:50:39;;;;;;;3.43;1.60;;;13.60;92.10;;;;;;5030518;28;20738;-74
2023/04/18 03:53:08;;;;;;;6.90;2.23;;;13.60;92.10;;;;;;5034943;28;20242;-75
2023/04/18 03:55:36;;;;;;;2.57;1.37;;;13.60;92.00;;;;;;5033484;28;20196;-76
2023/04/18 03:58:05;;;;;;;3.50;1.83;;;13.60;92.00;;;;;;5035111;28;20269;-75
2023/04/18 04:00:34;;;;;;;3.10;1.77;;;13.60;92.00;;;;;;5033620;28;20200;-75
2023/04/18 04:03:03;;;;;;;2.50;2.13;;;13.50;91.80;;;;;;5034458;28;20235;-75
2023/04/18 04:05:31;;;;;;;4.10;1.97;;;13.50;92.00;;;;;;5030932;28;20300;-76
2023/04/18 04:08:00;;;;;;;3.03;1.73;;;13.50;92.00;;;;;;5037384;28;20645;-75
2023/04/18 04:10:28;;;;;;;5.73;2.03;;;13.40;91.90;;;;;;5037380;28;20211;-76
2023/04/18 04:12:56;;;;;;;1.90;1.07;;;13.40;91.90;;;;;;5038817;28;20202;-75
2023/04/18 04:15:25;;;;;;;2.03;1.20;;;13.40;92.00;;;;;;5035178;28;20246;-75
2023/04/18 04:17:54;;;;;;;4.70;1.40;;;13.50;92.10;;;;;;5034529;28;20228;-76
2023/04/18 04:20:24;;;;;;;3.20;1.60;;;13.50;92.10;;;;;;5023272;28;20227;-75
2023/04/18 04:22:52;;;;;;;5.17;1.30;;;13.50;92.10;;;;;;5030283;28;20203;-75
2023/04/18 04:25:22;;;;;;;2.73;1.67;;;13.50;92.10;;;;;;5030610;28;20250;-76
2023/04/18 04:27:52;;;;;;;2.33;1.57;;;13.50;92.00;;;;;;5028564;28;20249;-76
2023/04/18 04:30:24;;;;;;;4.40;1.80;;;13.60;92.00;;;;;;5024912;28;20258;-76
2023/04/18 04:33:07;;;;;;;5.40;2.70;;;13.60;92.00;;;;;;5031086;28;20253;-77
2023/04/18 04:35:36;;;;;;;1.53;1.37;;;13.60;91.80;;;;;;5029182;28;20283;-76
2023/04/18 04:38:04;;;;;;;2.43;1.50;;;13.70;91.80;;;;;;5036048;28;20224;-76
2023/04/18 04:40:33;;;;;;;2.80;1.47;;;13.60;91.50;;;;;;5030881;28;20616;-77
2023/04/18 04:43:01;;;;;;;2.93;2.03;;;13.70;91.60;;;;;;5027193;28;20191;-78
2023/04/18 04:45:29;;;;;;;1.30;1.20;;;13.70;91.70;;;;;;5036031;28;20579;-76
2023/04/18 04:47:58;;;;;;;2.10;1.53;;;13.70;91.60;;;;;;5029945;28;20659;-76
2023/04/18 04:50:28;;;;;;;2.27;1.50;;;13.70;91.50;;;;;;5031925;28;20207;-76
2023/04/18 04:52:56;;;;;;;1.80;1.07;;;13.80;91.50;;;;;;5033929;28;20204;-76
2023/04/18 04:55:25;;;;;;;3.33;1.70;;;13.80;91.30;;;;;;5036118;28;20203;-75
2023/04/18 04:57:54;;;;;;;3.50;1.37;;;13.80;91.20;;;;;;5035902;28;20207;-76
2023/04/18 05:00:22;;;;;;;4.17;1.57;;;13.90;91.30;;;;;;5033538;28;20559;-75
2023/04/18 05:02:55;;;;;;;1.33;0.87;;;13.90;91.20;;;;;;5034245;28;20460;-78
2023/04/18 05:05:28;;;;;;;2.87;1.17;;;14.00;91.30;;;;;;5013590;28;20199;-78
2023/04/18 05:07:57;;;;;;;2.10;1.43;;;14.00;91.20;;;;;;5035728;28;20191;-75
2023/04/18 05:10:27;;;;;;;1.97;1.23;;;14.10;91.00;;;;;;5034318;28;20191;-77
2023/04/18 05:12:55;;;;;;;1.60;1.20;;;14.00;90.40;;;;;;5037612;28;20196;-76
2023/04/18 05:15:24;;;;;;;0.90;0.80;;;14.10;90.60;;;;;;5033087;28;20711;-76
2023/04/18 05:17:52;;;;;;;2.40;1.00;;;14.20;90.60;;;;;;5037963;28;20615;-77
2023/04/18 05:20:21;;;;;;;4.40;1.10;;;14.20;90.40;;;;;;5034989;28;20246;-77
2023/04/18 05:22:51;;;;;;;1.90;1.43;;;14.20;90.30;;;;;;5039272;28;20195;-77
2023/04/18 05:25:19;;;;;;;1.60;1.33;;;14.20;90.10;;;;;;5040504;28;20196;-77
2023/04/18 05:27:48;;;;;;;3.30;1.60;;;14.20;90.20;;;;;;5038308;28;20196;-76
2023/04/18 05:30:16;;;;;;;1.67;1.37;;;14.20;89.60;;;;;;5034486;28;20254;-76
2023/04/18 05:32:45;;;;;;;1.80;1.10;;;14.20;90.10;;;;;;5037622;28;20200;-75
2023/04/18 05:35:14;;;;;;;3.73;1.67;;;14.30;90.10;;;;;;5038284;28;20200;-77
2023/04/18 05:37:42;;;;;;;2.07;1.33;;;14.30;90.00;;;;;;5032680;28;20542;-78
2023/04/18 05:40:16;;;;;;;1.60;1.17;;;14.30;90.00;;;;;;5033947;28;20215;-75
2023/04/18 05:42:44;;;;;;;1.37;1.07;;;14.30;89.40;;;;;;5029512;28;20680;-78
2023/04/18 05:45:13;;;;;;;4.03;1.27;;;14.30;89.60;;;;;;5033224;28;20712;-77
2023/04/18 05:47:41;;;;;;;1.63;1.00;;;14.40;89.70;;;;;;5033629;28;20195;-78
2023/04/18 05:50:10;;;;;;;1.47;0.90;;;14.40;89.30;;;;;;5031230;28;20196;-78
2023/04/18 05:52:38;;;;;;;1.07;1.00;;;14.40;89.20;;;;;;5041672;28;20208;-78
2023/04/18 05:55:07;;;;;;;2.70;0.90;;;14.40;89.40;;;;;;5035563;28;20257;-78
2023/04/18 05:57:37;;;;;;;2.83;1.30;;;14.50;89.60;;;;;;5041328;28;20607;-78
2023/04/18 06:00:08;;;;;;;1.80;0.97;;;14.50;88.80;;;;;;5042539;28;20680;-77
2023/04/18 06:02:37;;;;;;;2.27;0.97;;;14.50;88.70;;;;;;5031808;28;20238;-76
2023/04/18 06:05:06;;;;;;;4.47;1.50;;;14.50;89.00;;;;;;5034143;28;20692;-77
2023/04/18 06:07:35;;;;;;;2.23;1.20;;;14.50;89.10;;;;;;5037287;28;20659;-75
2023/04/18 06:10:09;;;;;;;1.97;1.50;;;14.50;89.20;;;;;;5041288;28;20196;-77
2023/04/18 06:12:39;;;;;;;8.67;1.80;;;14.60;89.40;;;;;;5041555;28;20199;-78
2023/04/18 06:15:09;;;;;;;2.70;1.77;;;14.60;89.40;;;;;;5036907;28;20200;-77
2023/04/18 06:17:37;;;;;;;1.30;1.03;;;14.60;89.30;;;;;;5034437;28;20203;-76
2023/04/18 06:20:07;;;;;;;1.97;1.40;;;14.60;89.00;;;;;;5038489;28;20219;-75
2023/04/18 06:22:35;;;;;;;1.40;0.97;;;14.60;89.20;;;;;;5039265;28;20668;-76
2023/04/18 06:25:04;;;;;;;4.87;1.13;;;14.60;89.00;;;;;;5036174;28;20196;-77
2023/04/18 06:27:32;;;;;;;2.13;1.37;;;14.60;88.70;;;;;;5042222;28;20305;-75
2023/04/18 06:30:02;;;;;;;3.47;1.47;;;14.70;88.70;;;;;;5042240;28;20199;-76
2023/04/18 06:32:31;;;;;;;1.30;0.83;;;14.70;89.10;;;;;;5041552;28;20231;-76
2023/04/18 06:34:59;;;;;;;4.33;1.77;;;14.80;89.30;;;;;;5039449;28;20203;-76
2023/04/18 06:37:27;;;;;;;1.17;0.70;;;14.80;88.80;;;;;;5038392;28;20239;-76
2023/04/18 06:39:56;;;;;;;1.47;1.27;;;14.80;88.40;;;;;;5028656;28;20212;-73
2023/04/18 06:42:24;;;;;;;1.47;0.90;;;14.80;88.10;;;;;;5034873;28;20648;-78
2023/04/18 06:44:52;;;;;;;1.40;0.90;;;14.80;87.30;;;;;;5042074;28;20256;-76
2023/04/18 06:47:22;;;;;;;2.13;1.10;;;14.80;88.00;;;;;;5035884;28;20668;-76
2023/04/18 06:49:51;;;;;;;2.23;1.20;;;14.90;88.40;;;;;;5033633;28;20243;-75
2023/04/18 06:52:19;;;;;;;1.53;0.93;;;15.00;88.60;;;;;;5033342;28;20261;-76
2023/04/18 06:54:47;;;;;;;2.07;1.33;;;15.00;87.80;;;;;;5035678;28;20200;-75
2023/04/18 06:57:16;;;;;;;1.73;0.77;;;15.00;86.10;;;;;;5038453;28;20244;-76
2023/04/18 06:59:44;;;;;;;2.30;1.13;;;15.10;86.60;;;;;;5036030;28;20215;-74
2023/04/18 07:02:12;;;;;;;2.67;1.57;;;15.10;86.20;;;;;;5033639;28;20236;-77
2023/04/18 07:04:42;;;;;;;2.23;1.27;;;15.20;86.40;;;;;;5037742;28;20214;-76
2023/04/18 07:07:11;;;;;;;1.93;1.10;;;15.30;86.60;;;;;;5029114;28;20196;-74
2023/04/18 07:09:39;;;;;;;2.27;1.23;;;15.30;86.00;;;;;;5037965;28;20188;-75
2023/04/18 07:12:08;;;;;;;2.03;1.37;;;15.30;85.50;;;;;;5036097;28;20203;-76
2023/04/18 07:14:36;;;;;;;3.53;1.33;;;15.40;85.40;;;;;;5033044;28;20279;-77
2023/04/18 07:17:04;;;;;;;1.60;1.13;;;15.40;85.50;;;;;;5032800;28;20200;-74
2023/04/18 07:19:33;;;;;;;2.63;1.40;;;15.40;84.80;;;;;;5034515;28;20299;-75
2023/04/18 07:22:18;;;;;;;1.30;0.67;;;15.50;84.90;;;;;;5030725;28;20223;-78
2023/04/18 07:24:46;;;;;;;4.00;1.70;;;15.50;85.10;;;;;;5036393;28;20199;-78
2023/04/18 07:27:15;;;;;;;1.50;1.03;;;15.50;84.50;;;;;;5030811;28;20204;-78
2023/04/18 07:29:43;;;;;;;2.53;1.00;;;15.50;84.40;;;;;;5037238;28;20192;-78
2023/04/18 07:32:12;;;;;;;3.40;1.33;;;15.60;84.00;;;;;;5031666;28;20207;-78
2023/04/18 07:34:40;;;;;;;2.30;0.80;;;15.60;84.20;;;;;;5035190;28;20671;-78
2023/04/18 07:37:08;;;;;;;3.00;1.30;;;15.60;84.20;;;;;;5035458;28;20234;-76
2023/04/18 07:39:38;;;;;;;4.30;1.43;;;15.70;83.40;;;;;;5033941;28;20219;-77
2023/04/18 07:42:07;;;;;;;2.00;1.20;;;15.70;83.00;;;;;;5038722;28;20206;-76
2023/04/18 07:44:35;;;;;;;14.00;1.47;;;15.70;83.30;;;;;;5036896;28;20234;-76
2023/04/18 07:47:04;;;;;;;1.03;0.80;;;15.70;81.90;;;;;;5039838;28;20208;-77
2023/04/18 07:49:33;;;;;;;3.77;1.53;;;15.70;82.10;;;;;;5032821;28;20196;-78
2023/04/18 07:52:01;;;;;;;5.13;1.20;;;15.70;81.80;;;;;;5033795;28;20613;-77
2023/04/18 07:54:29;;;;;;;3.63;1.80;;;15.70;80.90;;;;;;5034084;28;20657;-77
2023/04/18 07:57:02;;;;;;;1.07;0.90;;;15.70;81.90;;;;;;5032594;28;20257;-77
2023/04/18 08:00:11;;;;;;;3.10;0.87;;;15.80;82.00;;;;;;5033714;28;20212;-78
2023/04/18 08:02:41;;;;;;;2.87;0.80;;;15.80;81.00;;;;;;5024733;28;20239;-76
2023/04/18 08:05:10;;;;;;;1.43;1.13;;;15.90;81.50;;;;;;5028780;28;20227;-77
2023/04/18 08:07:39;;;;;;;5.40;1.20;;;16.00;80.70;;;;;;5037029;28;20199;-79
2023/04/18 08:10:10;;;;;;;3.23;1.03;;;16.20;80.50;;;;;;5030561;28;20203;-78
2023/04/18 08:12:40;;;;;;;5.80;1.00;;;16.30;80.50;;;;;;5030391;28;20204;-76
2023/04/18 08:15:10;;;;;;;3.77;1.47;;;16.40;80.00;;;;;;5030110;28;20254;-76
2023/04/18 08:17:41;;;;;;;1.93;1.23;;;16.50;79.80;;;;;;5035149;28;20199;-78
2023/04/18 08:20:11;;;;;;;1.30;0.90;;;16.50;79.90;;;;;;5030971;28;20216;-77
2023/04/18 08:22:40;;;;;;;1.57;0.93;;;16.60;79.60;;;;;;5037482;28;20542;-79
2023/04/18 08:25:28;;;;;;;2.13;1.43;;;16.70;78.80;;;;;;5034496;28;20226;-77
2023/04/18 08:27:58;;;;;;;2.10;1.13;;;16.80;78.50;;;;;;5034779;28;20585;-78
2023/04/18 08:30:26;;;;;;;0.93;0.60;;;16.80;77.80;;;;;;5029083;28;20206;-77
2023/04/18 08:32:55;;;;;;;3.20;1.03;;;16.90;77.20;;;;;;5036759;28;20667;-78
2023/04/18 08:35:23;;;;;;;1.20;0.70;;;17.00;77.20;;;;;;5031289;28;20203;-77
2023/04/18 08:37:52;;;;;;;2.80;0.97;;;17.00;76.20;;;;;;5035833;28;20191;-76
2023/04/18 08:40:21;;;;;;;2.70;1.07;;;17.10;76.10;;;;;;5031327;28;20680;-78
2023/04/18 08:42:52;;;;;;;1.63;0.80;;;17.10;75.00;;;;;;5032814;28;20196;-77
2023/04/18 08:45:23;;;;;;;3.87;1.23;;;17.20;75.50;;;;;;5030413;28;20192;-77
2023/04/18 08:47:52;;;;;;;1.60;1.07;;;17.20;74.80;;;;;;5030296;28;20195;-77
2023/04/18 08:50:20;;;;;;;2.93;1.30;;;17.30;73.40;;;;;;5030445;28;20250;-76
2023/04/18 08:52:51;;;;;;;5.40;1.60;;;17.30;74.40;;;;;;5029942;28;20594;-78
2023/04/18 08:55:21;;;;;;;1.40;1.00;;;17.40;73.90;;;;;;5030363;28;20203;-76
2023/04/18 08:57:52;;;;;;;4.37;1.30;;;17.40;74.50;;;;;;5032354;28;20203;-77
2023/04/18 09:00:23;;;;;;;2.43;1.57;;;17.50;75.10;;;;;;5034459;28;20260;-77
2023/04/18 09:02:55;;;;;;;3.73;1.57;;;17.50;74.50;;;;;;5033010;28;20226;-77
2023/04/18 09:06:07;;;;;;;10.10;2.43;;;17.40;74.10;;;;;;5031330;28;20198;-79
2023/04/18 09:08:35;;;;;;;1.73;1.10;;;17.50;74.70;;;;;;5034440;28;20217;-78
2023/04/18 09:11:24;;;;;;;2.33;1.00;;;17.50;75.00;;;;;;5032307;28;20273;-76
2023/04/18 09:13:55;;;;;;;2.73;1.20;;;17.50;74.10;;;;;;5032114;28;20210;-77
2023/04/18 09:16:28;;;;;;;5.30;1.23;;;17.60;74.10;;;;;;5031309;28;20199;-78
2023/04/18 09:19:11;;;;;;;1.43;0.87;;;17.60;74.10;;;;;;5032982;28;20201;-77
2023/04/18 09:21:43;;;;;;;3.00;1.13;;;17.60;73.80;;;;;;5038114;28;20290;-78
2023/04/18 09:24:22;;;;;;;2.20;1.10;;;17.60;73.50;;;;;;5030170;28;20195;-75
2023/04/18 09:26:52;;;;;;;1.53;0.87;;;17.70;73.70;;;;;;5033138;28;20192;-77
2023/04/18 09:29:22;;;;;;;1.27;1.07;;;17.70;73.30;;;;;;5031417;28;20649;-77
2023/04/18 09:31:58;;;;;;;1.33;0.77;;;17.80;73.20;;;;;;5031532;28;20192;-76
2023/04/18 09:34:27;;;;;;;1.10;1.00;;;17.80;72.50;;;;;;5029930;28;20203;-77
2023/04/18 09:37:09;;;;;;;2.00;0.93;;;17.80;71.40;;;;;;5033033;28;20204;-77
2023/04/18 09:39:39;;;;;;;1.70;1.10;;;17.90;72.30;;;;;;5035958;28;20578;-76
2023/04/18 09:42:09;;;;;;;1.30;0.97;;;17.90;72.70;;;;;;5032866;28;20762;-76
2023/04/18 09:44:38;;;;;;;3.87;1.30;;;18.00;72.80;;;;;;5038113;28;20214;-75
2023/04/18 09:47:08;;;;;;;2.93;0.93;;;18.00;72.30;;;;;;5036253;28;20200;-75
2023/04/18 09:49:36;;;;;;;1.37;0.73;;;18.10;72.70;;;;;;5038771;28;20663;-75
2023/04/18 09:52:07;;;;;;;1.77;0.80;;;18.20;73.10;;;;;;5036790;28;20196;-75
2023/04/18 09:54:38;;;;;;;5.40;0.93;;;18.30;73.10;;;;;;5030719;28;20250;-75
2023/04/18 09:57:11;;;;;;;1.33;0.80;;;18.40;72.40;;;;;;5031982;28;20192;-76
2023/04/18 09:59:46;;;;;;;1.73;0.90;;;18.40;71.80;;;;;;5036335;28;20196;-77
2023/04/18 10:02:22;;;;;;;1.20;0.80;;;18.60;72.70;;;;;;5038218;28;20219;-76
2023/04/18 10:04:51;;;;;;;2.53;0.97;;;18.60;71.80;;;;;;5036124;28;20201;-77
2023/04/18 10:07:21;;;;;;;1.30;1.10;;;18.70;70.80;;;;;;5035029;28;20286;-77
2023/04/18 10:12:38;;;;;;;2.00;1.23;;;18.70;70.00;;;;;;5034462;28;20196;-73
2023/04/18 10:15:11;;;;;;;2.00;1.10;;;18.80;70.70;;;;;;5030890;28;20609;-77
2023/04/18 10:17:44;;;;;;;1.25;0.95;;;18.90;70.40;;;;;;5020674;28;20226;-77
2023/04/18 10:20:33;;;;;;;1.73;0.80;;;19.00;71.10;;;;;;5027424;28;20212;-75
2023/04/18 10:23:35;;;;;;;2.28;1.52;;;19.10;70.50;;;;;;5032010;28;20231;-76
2023/04/18 10:26:04;;;;;;;1.55;0.88;;;19.20;70.60;;;;;;5028014;28;21329;-75
2023/04/18 10:28:51;;;;;;;2.13;1.45;;;19.30;70.60;;;;;;5026684;28;20204;-78
2023/04/18 10:31:22;;;;;;;1.45;0.70;;;19.30;68.70;;;;;;5028990;28;20192;-75
2023/04/18 10:33:55;;;;;;;1.88;0.88;;;19.30;66.80;;;;;;5030838;28;20660;-74
2023/04/18 10:36:26;;;;;;;1.08;0.73;;;19.40;68.20;;;;;;5027519;28;20211;-76
2023/04/18 10:38:59;;;;;;;1.40;0.93;;;19.50;67.90;;;;;;5028876;28;20199;-79
2023/04/18 10:41:29;;;;;;;0.68;0.63;;;19.40;65.00;;;;;;5032521;28;20214;-77
2023/04/18 10:44:18;;;;;;;0.93;0.70;;;19.40;66.70;;;;;;5033579;28;20667;-77
2023/04/18 10:47:24;;;;;;;1.30;0.80;;;19.50;67.50;;;;;;5034367;28;20188;-75
2023/04/18 10:50:02;;;;;;;3.15;0.90;;;19.60;67.10;;;;;;5027997;28;20206;-78
2023/04/18 10:52:34;;;;;;;2.95;0.88;;;19.50;65.40;;;;;;5035755;28;20287;-77
2023/04/18 10:55:16;;;;;;;1.38;0.82;;;19.60;66.80;;;;;;5032683;28;20223;-77
2023/04/18 10:57:46;;;;;;;1.50;1.00;;;19.50;65.80;;;;;;5030567;28;20207;-75
2023/04/18 11:00:17;;;;;;;1.85;1.05;;;19.40;66.00;;;;;;5033533;28;20205;-75
2023/04/18 11:02:50;;;;;;;2.47;0.75;;;19.40;66.10;;;;;;5030548;28;20322;-77
2023/04/18 11:05:23;;;;;;;3.80;0.90;;;19.50;66.90;;;;;;5028487;28;20200;-75
2023/04/18 11:08:22;;;;;;;2.15;1.20;;;19.60;67.30;;;;;;5031800;28;20203;-76
2023/04/18 11:10:58;;;;;;;1.40;0.85;;;19.60;67.60;;;;;;5030223;28;20200;-73
2023/04/18 11:13:28;;;;;;;2.50;0.95;;;19.70;67.70;;;;;;5029919;28;20573;-75
2023/04/18 11:15:56;;;;;;;4.05;0.95;;;19.80;67.20;;;;;;5033627;28;20683;-74
2023/04/18 11:18:24;;;;;;;2.35;1.17;;;19.90;68.00;;;;;;5024379;28;20203;-76
2023/04/18 11:20:56;;;;;;;2.05;1.00;;;19.90;67.20;;;;;;5026930;28;20226;-73
2023/04/18 11:23:24;;;;;;;1.88;0.85;;;20.00;66.20;;;;;;5029130;28;20238;-74
2023/04/18 11:25:55;;;;;;;2.42;1.23;;;20.00;65.50;;;;;;5020933;28;20234;-71
2023/04/18 11:28:24;;;;;;;24.25;4.10;;;20.00;65.70;;;;;;5030706;28;20242;-76
2023/04/18 11:30:58;;;;;;;4.22;1.10;;;20.00;66.00;;;;;;5028418;28;20200;-73
2023/04/18 11:33:28;;;;;;;9.38;2.28;;;20.00;66.50;;;;;;5030145;28;20601;-76
2023/04/18 11:35:59;;;;;;;2.30;1.20;;;20.00;66.90;;;;;;5030683;28;20238;-75
2023/04/18 11:38:29;;;;;;;2.20;1.10;;;20.00;67.10;;;;;;5030753;28;20656;-77
2023/04/18 11:40:59;;;;;;;8.50;1.35;;;20.10;67.30;;;;;;5032202;28;20199;-76
2023/04/18 11:43:27;;;;;;;7.88;1.40;;;20.00;66.60;;;;;;5030786;28;20223;-75
2023/04/18 11:45:57;;;;;;;3.03;0.98;;;20.10;66.90;;;;;;5031547;28;20226;-74
2023/04/18 11:48:34;;;;;;;2.88;1.65;;;20.20;66.90;;;;;;5030275;28;20204;-76
2023/04/18 11:51:06;;;;;;;1.90;1.00;;;20.20;67.00;;;;;;5028288;28;20651;-74
2023/04/18 11:53:35;;;;;;;2.08;1.27;;;20.20;67.40;;;;;;5030301;28;20195;-75
2023/04/18 11:56:04;;;;;;;5.45;1.63;;;20.10;67.10;;;;;;5030532;28;20200;-76
2023/04/18 11:58:33;;;;;;;2.03;1.40;;;20.20;66.50;;;;;;5029180;28;20261;-75
2023/04/18 12:01:16;;;;;;;1.90;1.00;;;20.10;66.70;;;;;;5033085;28;20238;-76
2023/04/18 12:03:44;;;;;;;2.35;1.70;;;20.10;66.80;;;;;;5031247;28;20281;-77
2023/04/18 12:06:14;;;;;;;2.22;0.95;;;20.10;66.90;;;;;;5034589;28;20207;-76
2023/04/18 12:08:44;;;;;;;4.68;1.45;;;20.10;67.20;;;;;;5033969;28;20287;-76
2023/04/18 12:11:20;;;;;;;2.53;1.45;;;20.00;66.90;;;;;;5031395;28;20257;-76
2023/04/18 12:13:48;;;;;;;2.72;1.50;;;19.90;67.00;;;;;;5032569;28;20565;-75
2023/04/18 12:16:17;;;;;;;4.72;1.52;;;19.80;67.20;;;;;;5032595;28;20203;-77
2023/04/18 12:18:46;;;;;;;1.65;1.23;;;19.80;67.50;;;;;;5029187;28;20204;-76
2023/04/18 12:21:16;;;;;;;1.13;0.90;;;19.70;67.60;;;;;;5027605;28;20200;-76
2023/04/18 12:23:46;;;;;;;2.78;1.13;;;19.70;67.70;;;;;;5032428;28;20269;-75
2023/04/18 12:26:17;;;;;;;2.97;1.58;;;19.70;68.00;;;;;;5027858;28;20575;-75
2023/04/18 12:28:46;;;;;;;5.82;1.25;;;19.70;68.10;;;;;;5027153;28;20226;-77
2023/04/18 12:31:15;;;;;;;4.38;1.85;;;19.60;67.60;;;;;;5031226;28;20200;-75
2023/04/18 12:33:43;;;;;;;2.13;1.40;;;19.60;67.80;;;;;;5029439;28;20191;-76
2023/04/18 12:36:12;;;;;;;4.40;0.90;;;19.60;67.70;;;;;;5029973;28;20627;-75
2023/04/18 12:38:41;;;;;;;3.38;1.30;;;19.60;68.10;;;;;;5033449;28;20195;-77
2023/04/18 12:41:10;;;;;;;5.55;1.08;;;19.60;68.30;;;;;;5028301;28;20657;-76
2023/04/18 12:43:38;;;;;;;2.25;1.23;;;19.60;68.60;;;;;;5031283;28;20620;-75
2023/04/18 12:46:06;;;;;;;5.03;1.33;;;19.60;68.80;;;;;;5031844;28;20204;-76
2023/04/18 12:48:35;;;;;;;1.77;1.20;;;19.60;69.00;;;;;;5026879;28;20196;-76
2023/04/18 12:51:05;;;;;;;3.13;1.00;;;19.60;68.90;;;;;;5031316;28;20200;-76
2023/04/18 12:53:34;;;;;;;2.70;1.00;;;19.60;69.10;;;;;;5031142;28;20196;-77
2023/04/18 12:56:04;;;;;;;3.47;1.20;;;19.50;68.80;;;;;;5030435;28;20204;-77
2023/04/18 12:58:32;;;;;;;1.67;1.00;;;19.50;69.70;;;;;;5027666;28;20262;-75
2023/04/18 13:01:01;;;;;;;3.72;1.50;;;19.50;69.10;;;;;;5029081;28;20199;-76
2023/04/18 13:03:30;;;;;;;2.67;0.97;;;19.50;69.10;;;;;;5032617;28;20227;-78
2023/04/18 13:05:59;;;;;;;4.28;1.25;;;19.40;68.80;;;;;;5032998;28;20226;-77